Chapelle-lez-Herlaimont, Belgium
Current Conditions -  °F | °C
As of 4:50 AM on Thursday 29 Jan 2015 (Local Time) from EBCI Reporting Station
Scattered Clouds Scattered Clouds  
Wind Chill: 25°   Ceiling: Unl
Heat Index: 36°   Visibility: 6mi
Dew Point: 30°   Wind: 20mph
Humidity: 81%   Direction: 220°SW
Pressure: 29.41"   Gusts: NA
Location:  50.47°N, 4.28°E
Report Text: EBCI 290350Z 22017KT 9999 SCT030 02/M01 Q0996 NOSIG
Loading
Personal Weather Stations






























Interactive Weather Map New forecast layout! Learn more

10-Day Weather Forecast

Advertisements
Track Severe Weather on mobile